createdAt,value
2023-04-09T00:02:21.874Z,99.90
2023-04-09T00:04:48.976Z,99.90
2023-04-09T00:07:16.348Z,99.90
2023-04-09T00:09:43.353Z,99.90
2023-04-09T00:12:10.696Z,99.90
2023-04-09T00:14:37.800Z,99.90
2023-04-09T00:17:04.817Z,99.90
2023-04-09T00:19:31.860Z,99.90
2023-04-09T00:22:01.000Z,99.90
2023-04-09T00:24:28.002Z,99.90
2023-04-09T00:26:54.904Z,99.90
2023-04-09T00:29:21.908Z,99.90
2023-04-09T00:31:48.950Z,99.90
2023-04-09T00:34:16.088Z,99.90
2023-04-09T00:36:42.983Z,99.90
2023-04-09T00:39:10.044Z,99.90
2023-04-09T00:41:37.145Z,99.90
2023-04-09T00:44:04.367Z,99.90
2023-04-09T00:46:31.735Z,99.90
2023-04-09T00:48:59.422Z,99.90
2023-04-09T00:51:26.870Z,99.90
2023-04-09T00:53:54.719Z,99.90
2023-04-09T00:56:22.446Z,99.90
2023-04-09T00:58:49.905Z,99.90
2023-04-09T01:01:17.058Z,99.90
2023-04-09T01:03:44.095Z,99.90
2023-04-09T01:06:15.735Z,99.90
2023-04-09T01:08:42.778Z,99.90
2023-04-09T01:11:28.619Z,99.90
2023-04-09T01:14:00.946Z,99.90
2023-04-09T01:16:29.447Z,99.90
2023-04-09T01:19:02.283Z,99.90
2023-04-09T01:21:32.881Z,99.90
2023-04-09T01:24:18.597Z,99.90
2023-04-09T01:27:03.229Z,99.90
2023-04-09T01:29:53.711Z,99.90
2023-04-09T01:32:21.432Z,99.90
2023-04-09T01:34:48.725Z,99.90
2023-04-09T01:37:16.391Z,99.90
2023-04-09T01:39:43.493Z,99.90
2023-04-09T01:42:12.336Z,99.90
2023-04-09T01:44:40.188Z,99.90
2023-04-09T01:47:08.906Z,99.90
2023-04-09T01:49:36.468Z,99.90
2023-04-09T01:52:03.629Z,99.90
2023-04-09T01:54:30.598Z,99.90
2023-04-09T01:56:57.885Z,99.90
2023-04-09T01:59:25.043Z,99.90
2023-04-09T02:01:57.321Z,99.90
2023-04-09T02:04:31.813Z,99.90
2023-04-09T02:07:06.378Z,99.90
2023-04-09T02:09:36.543Z,99.90
2023-04-09T02:12:05.912Z,99.90
2023-04-09T02:14:33.546Z,99.90
2023-04-09T02:17:01.329Z,99.90
2023-04-09T02:19:45.145Z,99.90
2023-04-09T02:22:14.000Z,99.90
2023-04-09T02:24:41.569Z,99.90
2023-04-09T02:27:08.710Z,99.90
2023-04-09T02:29:35.994Z,99.90
2023-04-09T02:32:03.047Z,99.90
2023-04-09T02:34:30.153Z,99.90
2023-04-09T02:36:57.107Z,99.90
2023-04-09T02:39:24.093Z,99.90
2023-04-09T02:41:51.021Z,99.90
2023-04-09T02:44:18.011Z,99.90
2023-04-09T02:46:47.416Z,99.90
2023-04-09T02:49:14.799Z,99.90
2023-04-09T02:51:41.871Z,99.90
2023-04-09T02:54:08.867Z,99.90
2023-04-09T02:56:36.137Z,99.90
2023-04-09T02:59:03.138Z,99.90
2023-04-09T03:01:30.370Z,99.90
2023-04-09T03:03:57.596Z,99.90
2023-04-09T03:06:24.846Z,99.90
2023-04-09T03:08:52.001Z,99.90
2023-04-09T03:11:19.185Z,99.90
2023-04-09T03:13:46.634Z,99.90
2023-04-09T03:16:15.025Z,99.90
2023-04-09T03:18:42.145Z,99.90
2023-04-09T03:21:09.631Z,99.90
2023-04-09T03:23:40.946Z,99.90
2023-04-09T03:26:08.473Z,99.90
2023-04-09T03:28:43.198Z,99.90
2023-04-09T03:31:10.562Z,99.90
2023-04-09T03:33:40.420Z,99.90
2023-04-09T03:36:09.324Z,99.90
2023-04-09T03:38:55.946Z,99.90
2023-04-09T03:41:31.288Z,99.90
2023-04-09T03:44:01.785Z,99.90
2023-04-09T03:46:34.138Z,99.90
2023-04-09T03:49:01.907Z,99.90
2023-04-09T03:51:42.288Z,99.90
2023-04-09T03:54:09.503Z,99.90
2023-04-09T03:56:36.766Z,99.90
2023-04-09T03:59:07.509Z,99.90
2023-04-09T04:01:40.874Z,99.90
2023-04-09T04:04:08.109Z,99.90
2023-04-09T04:06:40.375Z,99.90
2023-04-09T04:09:33.433Z,99.90
2023-04-09T04:12:05.389Z,99.90
2023-04-09T04:14:52.049Z,99.90
2023-04-09T04:17:25.928Z,99.90
2023-04-09T04:19:54.562Z,99.90
2023-04-09T04:22:24.901Z,99.90
2023-04-09T04:24:56.577Z,99.90
2023-04-09T04:27:25.158Z,99.90
2023-04-09T04:29:52.892Z,99.90
2023-04-09T04:32:37.780Z,99.90
2023-04-09T04:35:09.429Z,99.90
2023-04-09T04:37:37.406Z,99.90
2023-04-09T04:40:05.656Z,99.90
2023-04-09T04:42:37.123Z,99.90
2023-04-09T04:45:10.663Z,99.70
2023-04-09T04:47:43.588Z,99.30
2023-04-09T04:50:10.799Z,99.10
2023-04-09T04:52:51.676Z,98.80
2023-04-09T04:55:20.808Z,98.60
2023-04-09T04:57:50.559Z,98.50
2023-04-09T05:00:19.003Z,98.30
2023-04-09T05:02:47.155Z,98.10
2023-04-09T05:05:21.769Z,98.20
2023-04-09T05:07:53.293Z,98.00
2023-04-09T05:10:21.648Z,97.70
2023-04-09T05:12:48.651Z,96.90
2023-04-09T05:15:24.832Z,96.80
2023-04-09T05:17:51.942Z,96.70
2023-04-09T05:20:19.074Z,96.50
2023-04-09T05:22:52.492Z,96.50
2023-04-09T05:25:27.669Z,96.20
2023-04-09T05:27:56.040Z,96.10
2023-04-09T05:30:25.529Z,95.80
2023-04-09T05:32:53.760Z,95.40
2023-04-09T05:35:21.890Z,95.40
2023-04-09T05:37:49.336Z,95.30
2023-04-09T05:40:16.469Z,95.10
2023-04-09T05:42:43.871Z,94.40
2023-04-09T05:45:17.114Z,94.40
2023-04-09T05:47:51.811Z,93.70
2023-04-09T05:50:21.874Z,93.60
2023-04-09T05:52:52.377Z,93.50
2023-04-09T05:55:20.539Z,93.30
2023-04-09T05:57:55.253Z,92.70
2023-04-09T06:00:22.465Z,92.70
2023-04-09T06:02:50.646Z,92.70
2023-04-09T06:05:17.788Z,92.70
2023-04-09T06:07:46.209Z,92.60
2023-04-09T06:10:14.344Z,92.50
2023-04-09T06:12:44.273Z,91.60
2023-04-09T06:15:11.523Z,91.50
2023-04-09T06:17:38.651Z,91.50
2023-04-09T06:20:06.323Z,91.60
2023-04-09T06:22:33.255Z,91.70
2023-04-09T06:25:00.426Z,91.60
2023-04-09T06:27:27.349Z,91.60
2023-04-09T06:29:54.302Z,91.50
2023-04-09T06:32:21.347Z,91.30
2023-04-09T06:34:48.530Z,90.50
2023-04-09T06:37:15.954Z,90.00
2023-04-09T06:39:50.685Z,89.60
2023-04-09T06:42:27.134Z,89.90
2023-04-09T06:45:17.075Z,89.40
2023-04-09T06:47:44.468Z,89.10
2023-04-09T06:50:11.610Z,88.90
2023-04-09T06:52:38.599Z,89.20
2023-04-09T06:55:06.430Z,88.70
2023-04-09T06:57:33.366Z,88.80
2023-04-09T07:00:00.438Z,88.20
2023-04-09T07:36:57.637Z,48.00
2023-04-09T07:39:24.664Z,48.50
2023-04-09T07:41:51.895Z,49.10
2023-04-09T07:44:18.836Z,48.70
2023-04-09T07:46:46.209Z,48.20
2023-04-09T07:49:13.383Z,47.50
2023-04-09T07:51:40.814Z,47.90
2023-04-09T07:54:09.026Z,47.70
2023-04-09T07:56:36.426Z,47.30
2023-04-09T07:59:03.391Z,46.70
2023-04-09T08:01:31.484Z,46.20
2023-04-09T08:03:58.661Z,45.80
2023-04-09T08:11:25.390Z,41.30
2023-04-09T08:13:53.042Z,40.70
2023-04-09T08:16:21.466Z,39.30
2023-04-09T08:21:16.487Z,36.90
2023-04-09T08:23:43.593Z,36.90
2023-04-09T08:26:10.997Z,36.70
2023-04-09T08:28:37.951Z,36.90
2023-04-09T08:31:05.280Z,39.00
2023-04-09T08:33:32.192Z,40.30
2023-04-09T08:36:00.789Z,41.10
2023-04-09T08:38:29.674Z,42.00
2023-04-09T08:40:56.967Z,42.80
2023-04-09T08:43:29.947Z,42.20
2023-04-09T08:46:04.566Z,42.60
2023-04-09T08:48:32.285Z,43.20
2023-04-09T08:50:59.722Z,42.80
2023-04-09T08:53:27.605Z,42.00
2023-04-09T08:55:54.832Z,41.60
2023-04-09T08:58:21.985Z,40.70
2023-04-09T09:00:49.333Z,40.10
2023-04-09T09:15:35.719Z,38.70
2023-04-09T09:18:03.186Z,39.70
2023-04-09T09:20:30.555Z,39.80
2023-04-09T09:22:57.764Z,38.70
2023-04-09T09:25:26.434Z,36.80
2023-04-09T09:27:54.593Z,36.30
2023-04-09T09:30:22.625Z,35.50
2023-04-09T09:32:52.241Z,35.70
2023-04-09T09:35:19.579Z,34.90
2023-04-09T09:37:46.592Z,34.40
2023-04-09T09:40:26.788Z,33.70
2023-04-09T09:42:57.987Z,33.20
2023-04-09T09:45:25.928Z,31.90
2023-04-09T09:47:54.232Z,32.30
2023-04-09T09:50:24.205Z,31.90
2023-04-09T09:52:52.730Z,32.00
2023-04-09T09:55:20.578Z,31.70
2023-04-09T09:57:48.614Z,31.10
2023-04-09T10:00:16.030Z,31.50
2023-04-09T10:02:54.526Z,32.90
2023-04-09T10:05:25.268Z,31.40
2023-04-09T10:07:52.535Z,33.60
2023-04-09T10:10:19.640Z,35.00
2023-04-09T10:12:47.468Z,35.90
2023-04-09T10:15:14.658Z,36.20
2023-04-09T10:17:41.573Z,36.10
2023-04-09T10:20:14.633Z,36.60
2023-04-09T10:22:43.135Z,36.10
2023-04-09T10:25:10.290Z,36.60
2023-04-09T10:27:37.476Z,36.80
2023-04-09T10:30:07.594Z,37.20
2023-04-09T10:32:38.027Z,37.40
2023-04-09T10:35:05.331Z,37.80
2023-04-09T10:37:32.617Z,37.70
2023-04-09T10:40:00.177Z,37.00
2023-04-09T10:42:30.551Z,36.90
2023-04-09T10:45:11.318Z,36.50
2023-04-09T10:47:40.125Z,36.90
2023-04-09T10:50:17.417Z,36.60
2023-04-09T10:52:46.177Z,36.40
2023-04-09T10:55:31.672Z,36.70
2023-04-09T10:57:58.979Z,36.60
2023-04-09T11:00:26.157Z,36.70
2023-04-09T11:02:53.419Z,36.90
2023-04-09T11:05:23.289Z,36.10
2023-04-09T11:08:10.742Z,36.00
2023-04-09T11:10:44.092Z,35.90
2023-04-09T11:13:17.412Z,36.30
2023-04-09T11:15:45.606Z,36.20
2023-04-09T11:18:29.053Z,36.20
2023-04-09T11:20:56.877Z,35.40
2023-04-09T11:23:24.983Z,35.30
2023-04-09T11:25:52.661Z,35.30
2023-04-09T11:28:20.219Z,34.80
2023-04-09T11:30:48.051Z,34.00
2023-04-09T11:33:17.509Z,34.00
2023-04-09T11:35:46.670Z,34.40
2023-04-09T11:38:13.869Z,34.40
2023-04-09T11:40:48.242Z,34.70
2023-04-09T11:43:16.786Z,35.40
2023-04-09T11:45:44.479Z,35.90
2023-04-09T11:48:12.288Z,35.60
2023-04-09T11:50:39.413Z,35.50
2023-04-09T11:53:19.443Z,35.90
2023-04-09T11:55:53.469Z,36.10
2023-04-09T11:58:24.400Z,36.00
2023-04-09T12:01:01.377Z,36.30
2023-04-09T12:03:30.074Z,35.50
2023-04-09T12:06:00.128Z,36.40
2023-04-09T12:08:27.762Z,37.10
2023-04-09T12:10:54.805Z,37.10
2023-04-09T12:13:21.847Z,36.90
2023-04-09T12:15:49.984Z,37.00
2023-04-09T12:18:17.300Z,36.80
2023-04-09T12:20:44.890Z,36.80
2023-04-09T12:23:12.650Z,37.00
2023-04-09T12:25:40.944Z,37.00
2023-04-09T12:28:08.904Z,37.20
2023-04-09T12:30:36.310Z,37.30
2023-04-09T12:33:04.410Z,36.90
2023-04-09T12:35:32.020Z,37.30
2023-04-09T12:38:02.109Z,37.70
2023-04-09T12:40:29.229Z,38.50
2023-04-09T12:42:56.605Z,38.30
2023-04-09T12:45:23.676Z,38.80
2023-04-09T12:47:51.286Z,38.90
2023-04-09T12:50:18.440Z,39.30
2023-04-09T12:52:46.642Z,39.20
2023-04-09T12:55:16.299Z,40.20
2023-04-09T12:57:45.370Z,40.80
2023-04-09T13:00:12.950Z,41.60
2023-04-09T13:02:40.386Z,42.00
2023-04-09T13:05:07.800Z,42.90
2023-04-09T13:07:34.863Z,44.40
2023-04-09T13:10:01.878Z,45.30
2023-04-09T13:12:29.007Z,46.20
2023-04-09T13:14:59.437Z,47.80
2023-04-09T13:17:26.478Z,48.50
2023-04-09T13:22:21.301Z,48.20
2023-04-09T13:24:48.237Z,48.90
2023-04-09T13:27:16.580Z,49.40
2023-04-09T13:29:43.601Z,50.00
2023-04-09T13:32:11.375Z,50.40
2023-04-09T13:34:39.023Z,50.90
2023-04-09T13:37:06.395Z,51.10
2023-04-09T13:39:33.407Z,51.60
2023-04-09T13:42:03.677Z,52.40
2023-04-09T13:44:35.330Z,53.00
2023-04-09T13:47:02.745Z,53.30
2023-04-09T13:49:30.942Z,53.70
2023-04-09T13:51:59.559Z,54.10
2023-04-09T13:54:26.470Z,54.80
2023-04-09T13:56:53.510Z,54.90
2023-04-09T13:59:20.570Z,55.10
2023-04-09T14:01:47.905Z,55.00
2023-04-09T14:04:15.345Z,54.90
2023-04-09T14:06:43.105Z,54.80
2023-04-09T14:09:11.076Z,55.30
2023-04-09T14:11:38.488Z,55.00
2023-04-09T14:14:05.627Z,55.50
2023-04-09T14:16:33.074Z,55.70
2023-04-09T14:19:00.242Z,55.60
2023-04-09T14:21:29.397Z,55.40
2023-04-09T14:23:56.707Z,55.40
2023-04-09T14:26:24.332Z,55.60
2023-04-09T14:28:52.006Z,56.10
2023-04-09T14:31:22.943Z,56.40
2023-04-09T14:33:50.077Z,56.90
2023-04-09T14:36:17.989Z,56.60
2023-04-09T14:38:45.080Z,56.70
2023-04-09T14:41:12.277Z,56.70
2023-04-09T14:43:39.945Z,56.70
2023-04-09T14:46:11.847Z,56.70
2023-04-09T14:48:42.445Z,56.70
2023-04-09T14:51:10.289Z,56.50
2023-04-09T14:53:37.360Z,56.60
2023-04-09T14:56:04.421Z,57.00
2023-04-09T14:58:31.610Z,57.10
2023-04-09T15:00:58.660Z,57.40
2023-04-09T15:03:26.186Z,57.70
2023-04-09T15:05:53.546Z,57.90
2023-04-09T15:08:20.745Z,58.00
2023-04-09T15:10:47.654Z,58.20
2023-04-09T15:13:14.615Z,58.10
2023-04-09T15:15:43.379Z,58.10
2023-04-09T15:18:10.984Z,58.30
2023-04-09T15:20:38.629Z,59.00
2023-04-09T15:23:05.684Z,58.90
2023-04-09T15:25:32.857Z,59.10
2023-04-09T15:27:59.986Z,59.20
2023-04-09T15:30:27.117Z,59.60
2023-04-09T15:32:54.388Z,59.80
2023-04-09T15:35:25.463Z,60.20
2023-04-09T15:37:52.522Z,60.30
2023-04-09T15:40:20.151Z,60.20
2023-04-09T15:42:47.230Z,60.60
2023-04-09T15:45:17.661Z,60.60
2023-04-09T15:47:45.081Z,60.70
2023-04-09T15:50:12.448Z,61.00
2023-04-09T15:52:39.643Z,61.20
2023-04-09T15:55:06.805Z,61.20
2023-04-09T16:00:01.334Z,60.50
2023-04-09T16:02:28.536Z,61.60
2023-04-09T16:04:55.871Z,61.80
2023-04-09T16:07:23.534Z,62.00
2023-04-09T16:09:50.545Z,61.90
2023-04-09T16:12:17.474Z,61.70
2023-04-09T16:14:44.785Z,61.70
2023-04-09T16:17:14.157Z,61.80
2023-04-09T16:19:42.227Z,62.20
2023-04-09T16:22:09.544Z,62.20
2023-04-09T16:24:36.519Z,62.20
2023-04-09T16:27:03.838Z,62.80
2023-04-09T16:29:30.834Z,62.70
2023-04-09T16:32:00.250Z,62.90
2023-04-09T16:34:27.295Z,63.30
2023-04-09T16:36:54.228Z,63.60
2023-04-09T16:39:21.324Z,64.10
2023-04-09T16:41:49.430Z,64.00
2023-04-09T16:44:16.892Z,64.10
2023-04-09T16:46:44.185Z,64.10
2023-04-09T16:49:11.339Z,64.30
2023-04-09T16:51:38.432Z,64.50
2023-04-09T16:54:05.676Z,64.70
2023-04-09T16:56:32.949Z,64.70
2023-04-09T16:59:00.134Z,65.10
2023-04-09T17:01:27.981Z,65.30
2023-04-09T17:03:59.711Z,66.00
2023-04-09T17:06:27.577Z,66.90
2023-04-09T17:08:54.655Z,67.70
2023-04-09T17:11:23.761Z,68.50
2023-04-09T17:13:50.667Z,69.30
2023-04-09T17:16:18.508Z,69.70
2023-04-09T17:18:45.592Z,70.00
2023-04-09T17:21:12.693Z,70.50
2023-04-09T17:23:39.599Z,70.80
2023-04-09T17:26:06.892Z,71.20
2023-04-09T17:28:35.183Z,71.60
2023-04-09T17:31:02.257Z,72.00
2023-04-09T17:33:29.204Z,72.80
2023-04-09T17:35:57.766Z,73.90
2023-04-09T17:38:27.196Z,75.00
2023-04-09T17:40:54.414Z,75.80
2023-04-09T17:43:21.415Z,76.60
2023-04-09T17:45:49.368Z,77.30
2023-04-09T17:48:16.820Z,78.10
2023-04-09T17:50:43.993Z,78.80
2023-04-09T17:53:20.265Z,79.50
2023-04-09T17:55:47.861Z,80.10
2023-04-09T17:58:15.428Z,80.50
2023-04-09T18:00:43.477Z,80.80
2023-04-09T18:03:15.958Z,81.00
2023-04-09T18:05:43.390Z,81.50
2023-04-09T18:08:14.008Z,81.90
2023-04-09T18:10:41.351Z,82.40
2023-04-09T18:13:08.296Z,82.70
2023-04-09T18:15:35.379Z,83.10
2023-04-09T18:18:02.499Z,83.30
2023-04-09T18:20:30.195Z,83.30
2023-04-09T18:22:57.289Z,83.40
2023-04-09T18:25:24.332Z,83.40
2023-04-09T18:27:51.395Z,83.50
2023-04-09T18:30:18.535Z,83.80
2023-04-09T18:32:45.667Z,84.00
2023-04-09T18:35:12.609Z,84.00
2023-04-09T18:37:39.725Z,84.10
2023-04-09T18:40:12.303Z,84.10
2023-04-09T18:42:39.375Z,84.20
2023-04-09T18:45:07.776Z,84.40
2023-04-09T18:47:34.831Z,84.50
2023-04-09T18:50:02.557Z,84.60
2023-04-09T18:52:29.557Z,84.80
2023-04-09T18:54:56.653Z,84.80
2023-04-09T18:57:23.678Z,85.00
2023-04-09T18:59:51.748Z,85.00
2023-04-09T19:02:18.920Z,85.00
2023-04-09T19:04:47.150Z,85.10
2023-04-09T19:07:14.407Z,85.00
2023-04-09T19:09:41.932Z,85.00
2023-04-09T19:12:09.031Z,85.10
2023-04-09T19:14:36.548Z,85.10
2023-04-09T19:17:03.676Z,85.10
2023-04-09T19:19:31.134Z,85.20
2023-04-09T19:21:58.639Z,85.10
2023-04-09T19:24:25.986Z,85.40
2023-04-09T19:26:53.641Z,85.60
2023-04-09T19:29:21.081Z,85.70
2023-04-09T19:31:48.072Z,85.80
2023-04-09T19:34:17.099Z,86.00
2023-04-09T19:36:44.313Z,86.10
2023-04-09T19:39:19.923Z,86.20
2023-04-09T19:41:46.877Z,86.40
2023-04-09T19:44:13.791Z,86.40
2023-04-09T19:46:41.111Z,86.30
2023-04-09T19:49:08.088Z,86.20
2023-04-09T19:51:35.067Z,86.30
2023-04-09T19:54:02.070Z,86.60
2023-04-09T19:56:29.140Z,86.60
2023-04-09T19:58:56.452Z,86.80
2023-04-09T20:01:23.424Z,87.00
2023-04-09T20:03:50.635Z,87.10
2023-04-09T20:06:18.311Z,87.10
2023-04-09T20:08:45.270Z,87.20
2023-04-09T20:11:18.747Z,87.10
2023-04-09T20:13:47.587Z,87.10
2023-04-09T20:16:15.041Z,87.10
2023-04-09T20:18:42.191Z,87.80
2023-04-09T20:21:09.347Z,87.10
2023-04-09T20:23:36.596Z,87.10
2023-04-09T20:26:03.704Z,87.10
2023-04-09T20:28:34.182Z,87.20
2023-04-09T20:31:04.328Z,87.20
2023-04-09T20:33:32.364Z,87.20
2023-04-09T20:35:59.614Z,87.20
2023-04-09T20:38:27.075Z,87.20
2023-04-09T20:40:54.017Z,87.30
2023-04-09T20:43:23.079Z,87.50
2023-04-09T20:45:50.057Z,87.60
2023-04-09T20:48:19.452Z,87.80
2023-04-09T20:50:46.830Z,88.10
2023-04-09T20:53:13.757Z,88.50
2023-04-09T20:55:40.813Z,88.70
2023-04-09T20:58:10.102Z,88.90
2023-04-09T21:00:37.118Z,89.10
2023-04-09T21:03:04.423Z,89.30
2023-04-09T21:05:31.525Z,89.50
2023-04-09T21:07:59.920Z,89.80
2023-04-09T21:10:26.911Z,90.10
2023-04-09T21:12:53.851Z,90.20
2023-04-09T21:15:20.815Z,90.40
2023-04-09T21:17:48.028Z,90.50
2023-04-09T21:20:16.835Z,90.70
2023-04-09T21:22:43.987Z,90.80
2023-04-09T21:25:12.175Z,91.10
2023-04-09T21:30:08.408Z,91.40
2023-04-09T21:32:35.539Z,92.00
2023-04-09T21:35:02.666Z,92.40
2023-04-09T21:37:32.079Z,92.70
2023-04-09T21:39:59.373Z,92.90
2023-04-09T21:42:26.566Z,93.00
2023-04-09T21:44:53.475Z,93.20
2023-04-09T21:47:20.434Z,93.20
2023-04-09T21:49:47.465Z,93.40
2023-04-09T21:52:15.026Z,93.50
2023-04-09T21:54:42.620Z,93.60
2023-04-09T21:57:12.734Z,93.90
2023-04-09T21:59:41.397Z,94.20
2023-04-09T22:02:08.762Z,94.60
2023-04-09T22:04:35.907Z,94.70
2023-04-09T22:07:03.408Z,94.90
2023-04-09T22:09:30.694Z,95.10
2023-04-09T22:11:58.645Z,95.30
2023-04-09T22:14:29.278Z,95.50
2023-04-09T22:17:01.730Z,95.60
2023-04-09T22:19:29.668Z,95.80
2023-04-09T22:21:58.901Z,96.00
2023-04-09T22:24:30.391Z,96.30
2023-04-09T22:26:59.070Z,96.70
2023-04-09T22:29:26.800Z,96.90
2023-04-09T22:31:54.432Z,97.10
2023-04-09T22:34:22.231Z,97.40
2023-04-09T22:36:49.694Z,97.70
2023-04-09T22:39:16.650Z,98.00
2023-04-09T22:41:43.739Z,98.30
2023-04-09T22:44:10.757Z,98.60
2023-04-09T22:46:37.861Z,98.80
2023-04-09T22:49:06.152Z,98.90
2023-04-09T22:51:34.929Z,99.00
2023-04-09T22:54:02.254Z,99.30
2023-04-09T22:56:33.674Z,99.40
2023-04-09T22:59:00.696Z,99.80
2023-04-09T23:01:27.972Z,99.90
2023-04-09T23:03:55.805Z,99.90
2023-04-09T23:06:23.112Z,99.90
2023-04-09T23:08:50.677Z,99.90
2023-04-09T23:11:17.933Z,99.90
2023-04-09T23:13:45.006Z,99.90
2023-04-09T23:16:12.297Z,99.90
2023-04-09T23:18:40.533Z,99.90
2023-04-09T23:21:08.169Z,99.90
2023-04-09T23:23:35.537Z,99.90
2023-04-09T23:26:02.862Z,99.90
2023-04-09T23:28:30.320Z,99.90
2023-04-09T23:30:57.395Z,99.90
2023-04-09T23:33:25.553Z,99.90
2023-04-09T23:35:52.622Z,99.90
2023-04-09T23:38:19.626Z,99.90
2023-04-09T23:40:47.516Z,99.90
2023-04-09T23:43:14.627Z,99.90
2023-04-09T23:45:41.668Z,99.90
2023-04-09T23:48:09.240Z,99.90
2023-04-09T23:50:39.802Z,99.90
2023-04-09T23:53:07.013Z,99.90
2023-04-09T23:55:37.989Z,99.90
2023-04-09T23:58:05.303Z,99.90
